Stephen R Warden — WDC6523 — position and weather

sailwx.info

Track history (hours):
 
Tides and Currents Weather Stations Pressure Air Temp Water Temp Dewpoint Dewpoint Depression Visibility Wind Speed Wind Dir Waves Ship Positions

Stephen R Warden

More information available from US FCC via Universal Licensing System and Coast Guard Vessel Documentation Center.

Last reported at 2014-Aug-21 01:23 UTC. Time now 2014-Aug-21 02:28 UTC.
Position N 29°56' W 090°19'.

Length 37 m; draft 3 m.

Type: Towing. MMSI: 367057460.

Date/timePositionNaut miles runAvg speedWind from/ knotsBaromVisibWave heightAir tempDewpointWater temp
2014-Aug-21 01:23N 29°56' W 090°19'0 0.0
2014-Aug-21 00:32N 29°56' W 090°19'0 0.0
2014-Aug-20 22:32N 29°56' W 090°19'  
2014-Aug-18 03:06N 29°56' W 090°13'4 5.6
2014-Aug-18 02:19N 29°58' W 090°17'4 5.4
2014-Aug-18 01:32N 29°56' W 090°21'0 0.0
2014-Aug-18 00:32N 29°56' W 090°21'19 3.1
2014-Aug-17 18:33N 30°02' W 090°42'3 1.9
2014-Aug-17 17:05N 30°01' W 090°45'1 1.8
2014-Aug-17 16:33N 30°01' W 090°44'4 3.4
2014-Aug-17 15:24N 29°59' W 090°48'4 0.3
2014-Aug-17 03:18N 30°03' W 090°50'3 4.6
2014-Aug-17 02:33N 29°60' W 090°50'4 3.5
2014-Aug-17 01:32N 30°01' W 090°46'0 0.0
2014-Aug-17 00:32N 30°01' W 090°46'1 1.3
2014-Aug-16 23:33N 30°01' W 090°45'0 0.1
2014-Aug-16 22:33N 30°01' W 090°44'0 0.1
2014-Aug-16 21:33N 30°01' W 090°44'3 2.7
2014-Aug-16 20:33N 30°02' W 090°42'3 3.0
2014-Aug-16 19:33N 30°02' W 090°38'2 2.5
2014-Aug-16 18:33N 30°03' W 090°35'3 3.3
2014-Aug-16 17:33N 30°03' W 090°31'0 0.0
2014-Aug-16 16:33N 30°03' W 090°31'0 0.0
2014-Aug-16 15:33N 30°03' W 090°31'0 0.0
2014-Aug-16 14:33N 30°03' W 090°31'1 0.5
2014-Aug-16 13:33N 30°03' W 090°31'2 1.7
2014-Aug-16 12:33N 30°03' W 090°29'0 0.0
2014-Aug-16 11:33N 30°03' W 090°29'0 0.0
2014-Aug-16 10:33N 30°03' W 090°29'0 0.0
2014-Aug-16 09:33N 30°03' W 090°29'0 0.0
2014-Aug-16 08:33N 30°03' W 090°29'0 0.0
2014-Aug-16 07:33N 30°03' W 090°29'0 0.0
2014-Aug-16 06:33N 30°03' W 090°29'3 3.3
2014-Aug-16 05:33N 29°60' W 090°28'4 4.2
2014-Aug-16 04:33N 29°58' W 090°24'8 0.5
2014-Aug-15 12:28N 29°58' W 090°15'3 3.8
2014-Aug-15 11:33N 29°57' W 090°19'0 0.1
2014-Aug-15 10:32N 29°57' W 090°18'0 0.1
2014-Aug-15 09:28N 29°57' W 090°19'3 2.9
2014-Aug-15 08:33N 29°56' W 090°22'5 5.4
2014-Aug-15 07:33N 29°60' W 090°26'5 4.7
2014-Aug-15 06:33N 30°03' W 090°30'6 6.1
2014-Aug-15 05:33N 30°02' W 090°37'5 5.1
2014-Aug-15 04:33N 30°01' W 090°43'2 1.7
2014-Aug-15 03:33N 30°01' W 090°45'0 0.0
2014-Aug-15 02:33N 30°01' W 090°45'0 0.0
2014-Aug-15 01:33N 30°01' W 090°45'0 0.0
2014-Aug-15 00:33N 30°01' W 090°45'0 0.0
2014-Aug-14 23:33N 30°01' W 090°45'1 0.1
2014-Aug-14 13:04N 30°01' W 090°44'2 4.4
2014-Aug-14 12:33N 30°01' W 090°47'1 0.7
2014-Aug-14 11:31N 30°00' W 090°47'0 0.0
2014-Aug-14 10:33N 30°00' W 090°47'0 0.0
2014-Aug-14 09:33N 30°00' W 090°47'0 0.0
2014-Aug-14 08:33N 30°00' W 090°47'0 0.0
2014-Aug-14 07:27N 30°00' W 090°47'0 0.3
2014-Aug-14 06:33N 29°60' W 090°48'3 3.5
2014-Aug-14 05:33N 30°03' W 090°50'7 5.8
2014-Aug-14 04:23N 30°08' W 090°55'3 0.1
2014-Aug-13 05:31N 30°05' W 090°55'4 2.9
2014-Aug-13 04:08N 30°03' W 090°50'3 4.4
2014-Aug-13 03:23N 29°59' W 090°50'2 2.9
2014-Aug-13 02:33N 30°00' W 090°47'21 1.5
2014-Aug-12 12:21N 29°57' W 090°23'1 0.6
2014-Aug-12 11:32N 29°57' W 090°23'20 0.8
2014-Aug-11 10:33N 29°56' W 089°60'5 2.0
2014-Aug-11 08:17N 29°52' W 089°58'4 5.3
2014-Aug-11 07:33N 29°48' W 090°00'9 2.8
2014-Aug-11 04:19N 29°40' W 089°58'  
Track history (hours):
 
Tides and Currents Weather Stations Pressure Air Temp Water Temp Dewpoint Dewpoint Depression Visibility Wind Speed Wind Dir Waves Ship Positions

Stephen R Warden

More information available from US FCC via Universal Licensing System and Coast Guard Vessel Documentation Center.

Last reported at 2014-Aug-21 01:23 UTC. Time now 2014-Aug-21 02:28 UTC.
Position N 29°56' W 090°19'.

Length 37 m; draft 3 m.

Type: Towing. MMSI: 367057460.

Date/timePositionNaut miles runAvg speedWind from/ knotsBaromVisibWave heightAir tempDewpointWater temp
2014-Aug-21 01:23N 29°56' W 090°19'0 0.0
2014-Aug-21 00:32N 29°56' W 090°19'0 0.0
2014-Aug-20 22:32N 29°56' W 090°19'  
2014-Aug-18 03:06N 29°56' W 090°13'4 5.6
2014-Aug-18 02:19N 29°58' W 090°17'4 5.4
2014-Aug-18 01:32N 29°56' W 090°21'0 0.0
2014-Aug-18 00:32N 29°56' W 090°21'19 3.1
2014-Aug-17 18:33N 30°02' W 090°42'3 1.9
2014-Aug-17 17:05N 30°01' W 090°45'1 1.8
2014-Aug-17 16:33N 30°01' W 090°44'4 3.4
2014-Aug-17 15:24N 29°59' W 090°48'4 0.3
2014-Aug-17 03:18N 30°03' W 090°50'3 4.6
2014-Aug-17 02:33N 29°60' W 090°50'4 3.5
2014-Aug-17 01:32N 30°01' W 090°46'0 0.0
2014-Aug-17 00:32N 30°01' W 090°46'1 1.3
2014-Aug-16 23:33N 30°01' W 090°45'0 0.1
2014-Aug-16 22:33N 30°01' W 090°44'0 0.1
2014-Aug-16 21:33N 30°01' W 090°44'3 2.7
2014-Aug-16 20:33N 30°02' W 090°42'3 3.0
2014-Aug-16 19:33N 30°02' W 090°38'2 2.5
2014-Aug-16 18:33N 30°03' W 090°35'3 3.3
2014-Aug-16 17:33N 30°03' W 090°31'0 0.0
2014-Aug-16 16:33N 30°03' W 090°31'0 0.0
2014-Aug-16 15:33N 30°03' W 090°31'0 0.0
2014-Aug-16 14:33N 30°03' W 090°31'1 0.5
2014-Aug-16 13:33N 30°03' W 090°31'2 1.7
2014-Aug-16 12:33N 30°03' W 090°29'0 0.0
2014-Aug-16 11:33N 30°03' W 090°29'0 0.0
2014-Aug-16 10:33N 30°03' W 090°29'0 0.0
2014-Aug-16 09:33N 30°03' W 090°29'0 0.0
2014-Aug-16 08:33N 30°03' W 090°29'0 0.0
2014-Aug-16 07:33N 30°03' W 090°29'0 0.0
2014-Aug-16 06:33N 30°03' W 090°29'3 3.3
2014-Aug-16 05:33N 29°60' W 090°28'4 4.2
2014-Aug-16 04:33N 29°58' W 090°24'8 0.5
2014-Aug-15 12:28N 29°58' W 090°15'3 3.8
2014-Aug-15 11:33N 29°57' W 090°19'0 0.1
2014-Aug-15 10:32N 29°57' W 090°18'0 0.1
2014-Aug-15 09:28N 29°57' W 090°19'3 2.9
2014-Aug-15 08:33N 29°56' W 090°22'5 5.4
2014-Aug-15 07:33N 29°60' W 090°26'5 4.7
2014-Aug-15 06:33N 30°03' W 090°30'6 6.1
2014-Aug-15 05:33N 30°02' W 090°37'5 5.1
2014-Aug-15 04:33N 30°01' W 090°43'2 1.7
2014-Aug-15 03:33N 30°01' W 090°45'0 0.0
2014-Aug-15 02:33N 30°01' W 090°45'0 0.0
2014-Aug-15 01:33N 30°01' W 090°45'0 0.0
2014-Aug-15 00:33N 30°01' W 090°45'0 0.0
2014-Aug-14 23:33N 30°01' W 090°45'1 0.1
2014-Aug-14 13:04N 30°01' W 090°44'2 4.4
2014-Aug-14 12:33N 30°01' W 090°47'1 0.7
2014-Aug-14 11:31N 30°00' W 090°47'0 0.0
2014-Aug-14 10:33N 30°00' W 090°47'0 0.0
2014-Aug-14 09:33N 30°00' W 090°47'0 0.0
2014-Aug-14 08:33N 30°00' W 090°47'0 0.0
2014-Aug-14 07:27N 30°00' W 090°47'0 0.3
2014-Aug-14 06:33N 29°60' W 090°48'3 3.5
2014-Aug-14 05:33N 30°03' W 090°50'7 5.8
2014-Aug-14 04:23N 30°08' W 090°55'3 0.1
2014-Aug-13 05:31N 30°05' W 090°55'4 2.9
2014-Aug-13 04:08N 30°03' W 090°50'3 4.4
2014-Aug-13 03:23N 29°59' W 090°50'2 2.9
2014-Aug-13 02:33N 30°00' W 090°47'21 1.5
2014-Aug-12 12:21N 29°57' W 090°23'1 0.6
2014-Aug-12 11:32N 29°57' W 090°23'20 0.8
2014-Aug-11 10:33N 29°56' W 089°60'5 2.0
2014-Aug-11 08:17N 29°52' W 089°58'4 5.3
2014-Aug-11 07:33N 29°48' W 090°00'9 2.8
2014-Aug-11 04:19N 29°40' W 089°58'  

Dump ship's entire track history